createdAt,value
2023-05-13T00:00:09.141Z,164.42
2023-05-13T00:01:09.216Z,164.76
2023-05-13T00:02:09.232Z,164.98
2023-05-13T00:03:09.433Z,164.75
2023-05-13T00:04:09.368Z,164.08
2023-05-13T00:05:09.398Z,164.10
2023-05-13T00:06:09.438Z,162.49
2023-05-13T00:07:09.488Z,164.31
2023-05-13T00:08:09.555Z,163.96
2023-05-13T00:09:09.591Z,164.64
2023-05-13T00:10:09.648Z,163.99
2023-05-13T00:11:09.668Z,164.94
2023-05-13T00:12:09.719Z,166.57
2023-05-13T00:13:09.827Z,165.19
2023-05-13T00:14:09.807Z,166.16
2023-05-13T00:15:09.865Z,164.78
2023-05-13T00:16:09.923Z,163.79
2023-05-13T00:17:09.954Z,165.77
2023-05-13T00:18:09.968Z,167.39
2023-05-13T00:19:10.043Z,168.15
2023-05-13T00:20:10.033Z,166.48
2023-05-13T00:21:10.092Z,166.62
2023-05-13T00:22:10.163Z,167.20
2023-05-13T00:23:10.266Z,165.41
2023-05-13T00:24:10.263Z,166.13
2023-05-13T00:25:10.297Z,167.44
2023-05-13T00:26:10.350Z,167.07
2023-05-13T00:27:10.404Z,169.77
2023-05-13T00:28:10.477Z,168.13
2023-05-13T00:29:10.531Z,168.05
2023-05-13T00:30:10.577Z,168.74
2023-05-13T00:31:10.612Z,167.32
2023-05-13T00:32:10.652Z,168.40
2023-05-13T00:33:10.718Z,171.01
2023-05-13T00:34:10.768Z,169.19
2023-05-13T00:35:10.804Z,172.60
2023-05-13T00:36:10.874Z,173.57
2023-05-13T00:37:10.942Z,173.54
2023-05-13T00:38:10.973Z,172.36
2023-05-13T00:39:11.000Z,171.60
2023-05-13T00:40:11.054Z,172.45
2023-05-13T00:41:11.118Z,170.36
2023-05-13T00:42:11.212Z,169.44
2023-05-13T00:43:11.261Z,170.11
2023-05-13T00:44:13.248Z,169.35
2023-05-13T00:45:11.292Z,169.63
2023-05-13T00:46:11.282Z,169.21
2023-05-13T00:47:11.320Z,167.62
2023-05-13T00:48:11.263Z,168.36
2023-05-13T00:49:11.283Z,167.21
2023-05-13T00:50:11.264Z,167.04
2023-05-13T00:51:11.252Z,167.57
2023-05-13T00:52:11.223Z,165.30
2023-05-13T00:53:11.245Z,166.31
2023-05-13T00:54:11.257Z,165.25
2023-05-13T00:55:11.230Z,166.95
2023-05-13T00:56:11.222Z,167.39
2023-05-13T00:57:11.205Z,169.51
2023-05-13T00:58:11.198Z,169.09
2023-05-13T00:59:11.174Z,170.64
2023-05-13T01:00:11.173Z,168.91
2023-05-13T01:01:11.206Z,169.55
2023-05-13T01:02:11.210Z,168.09
2023-05-13T01:03:11.360Z,168.58
2023-05-13T01:04:11.181Z,169.22
2023-05-13T01:05:11.136Z,170.41
2023-05-13T01:06:11.138Z,169.51
2023-05-13T01:07:11.136Z,169.35
2023-05-13T01:08:11.138Z,170.58
2023-05-13T01:09:11.118Z,167.06
2023-05-13T01:10:11.133Z,168.76
2023-05-13T01:11:11.092Z,169.72
2023-05-13T01:12:11.084Z,170.06
2023-05-13T01:13:11.083Z,169.81
2023-05-13T01:14:11.129Z,170.63
2023-05-13T01:15:11.087Z,171.17
2023-05-13T01:16:11.140Z,170.62
2023-05-13T01:17:11.089Z,169.98
2023-05-13T01:18:11.105Z,169.83
2023-05-13T01:19:11.097Z,168.48
2023-05-13T01:20:11.028Z,169.77
2023-05-13T01:21:11.035Z,168.41
2023-05-13T01:22:11.022Z,171.30
2023-05-13T01:23:11.097Z,168.73
2023-05-13T01:24:11.236Z,170.32
2023-05-13T01:25:11.212Z,168.54
2023-05-13T01:26:11.245Z,169.85
2023-05-13T01:27:11.316Z,169.22
2023-05-13T01:28:11.375Z,169.36
2023-05-13T01:29:11.432Z,169.57
2023-05-13T01:30:11.508Z,170.62
2023-05-13T01:31:11.607Z,168.44
2023-05-13T01:32:11.630Z,169.01
2023-05-13T01:33:11.727Z,171.04
2023-05-13T01:34:11.724Z,170.42
2023-05-13T01:35:11.858Z,168.33
2023-05-13T01:36:11.848Z,169.75
2023-05-13T01:37:11.887Z,169.90
2023-05-13T01:38:11.924Z,169.69
2023-05-13T01:39:11.973Z,168.47
2023-05-13T01:40:24.170Z,169.98
2023-05-13T01:41:13.030Z,170.11
2023-05-13T01:42:12.008Z,170.38
2023-05-13T01:43:12.003Z,170.68
2023-05-13T01:44:12.014Z,172.06
2023-05-13T01:45:11.996Z,171.62
2023-05-13T01:46:12.091Z,172.65
2023-05-13T01:47:11.978Z,173.88
2023-05-13T01:48:11.985Z,173.82
2023-05-13T01:49:11.976Z,174.77
2023-05-13T01:50:12.003Z,175.62
2023-05-13T01:51:12.068Z,175.16
2023-05-13T01:52:12.116Z,176.24
2023-05-13T01:53:12.196Z,173.33
2023-05-13T01:54:12.261Z,174.32
2023-05-13T01:55:12.294Z,175.07
2023-05-13T01:56:12.427Z,174.68
2023-05-13T01:57:12.500Z,175.45
2023-05-13T01:58:12.531Z,175.04
2023-05-13T01:59:12.586Z,174.59
2023-05-13T02:00:12.662Z,173.82
2023-05-13T02:01:12.724Z,173.02
2023-05-13T02:02:12.804Z,174.02
2023-05-13T02:03:12.905Z,174.81
2023-05-13T02:04:12.925Z,173.78
2023-05-13T02:05:12.966Z,173.61
2023-05-13T02:06:13.032Z,174.86
2023-05-13T02:07:13.084Z,173.61
2023-05-13T02:08:13.148Z,175.48
2023-05-13T02:09:13.208Z,174.56
2023-05-13T02:10:13.258Z,173.32
2023-05-13T02:11:13.320Z,173.47
2023-05-13T02:12:13.373Z,173.10
2023-05-13T02:13:13.426Z,171.83
2023-05-13T02:14:13.472Z,171.53
2023-05-13T02:15:13.521Z,172.70
2023-05-13T02:16:13.633Z,172.54
2023-05-13T02:17:13.638Z,171.48
2023-05-13T02:18:13.790Z,172.51
2023-05-13T02:19:13.794Z,171.53
2023-05-13T02:20:13.799Z,172.86
2023-05-13T02:21:13.893Z,171.64
2023-05-13T02:22:13.927Z,172.64
2023-05-13T02:23:13.994Z,172.57
2023-05-13T02:24:14.072Z,172.09
2023-05-13T02:25:14.117Z,173.06
2023-05-13T02:26:14.177Z,174.35
2023-05-13T02:27:14.235Z,173.30
2023-05-13T02:28:14.347Z,175.12
2023-05-13T02:29:14.333Z,176.31
2023-05-13T02:30:14.406Z,175.22
2023-05-13T02:31:14.464Z,177.41
2023-05-13T02:32:14.679Z,177.36
2023-05-13T02:33:14.614Z,177.36
2023-05-13T02:34:14.646Z,176.60
2023-05-13T02:35:14.694Z,177.74
2023-05-13T02:36:14.757Z,177.31
2023-05-13T02:37:14.837Z,177.55
2023-05-13T02:38:14.917Z,176.84
2023-05-13T02:39:14.962Z,175.74
2023-05-13T02:40:15.030Z,178.79
2023-05-13T02:41:15.108Z,180.20
2023-05-13T02:42:15.158Z,178.68
2023-05-13T02:43:15.222Z,179.27
2023-05-13T02:44:15.279Z,179.72
2023-05-13T02:45:15.308Z,179.62
2023-05-13T02:46:15.420Z,181.02
2023-05-13T02:47:15.405Z,181.91
2023-05-13T02:48:15.457Z,182.05
2023-05-13T02:49:15.488Z,181.66
2023-05-13T02:50:15.554Z,184.26
2023-05-13T02:51:15.591Z,182.45
2023-05-13T02:52:15.622Z,184.55
2023-05-13T02:53:15.683Z,185.22
2023-05-13T02:54:15.746Z,186.15
2023-05-13T02:55:15.821Z,186.94
2023-05-13T02:56:15.853Z,187.39
2023-05-13T02:57:15.911Z,185.54
2023-05-13T02:58:15.963Z,184.56
2023-05-13T02:59:16.015Z,187.26
2023-05-13T03:00:16.092Z,186.63
2023-05-13T03:01:16.152Z,187.37
2023-05-13T03:02:16.260Z,188.66
2023-05-13T03:03:16.308Z,187.04
2023-05-13T03:04:16.316Z,187.83
2023-05-13T03:05:16.370Z,186.12
2023-05-13T03:06:16.438Z,187.36
2023-05-13T03:07:16.496Z,186.24
2023-05-13T03:08:16.580Z,188.96
2023-05-13T03:09:16.593Z,187.85
2023-05-13T03:10:16.655Z,186.61
2023-05-13T03:11:16.793Z,187.10
2023-05-13T03:12:16.813Z,188.98
2023-05-13T03:13:16.866Z,189.90
2023-05-13T03:14:16.928Z,188.13
2023-05-13T03:15:16.985Z,188.54
2023-05-13T03:16:17.105Z,190.13
2023-05-13T03:17:17.075Z,190.68
2023-05-13T03:18:17.107Z,192.55
2023-05-13T03:19:17.187Z,194.76
2023-05-13T03:20:17.194Z,194.23
2023-05-13T03:21:17.257Z,193.50
2023-05-13T03:22:17.307Z,193.01
2023-05-13T03:23:17.381Z,193.78
2023-05-13T03:24:17.415Z,194.02
2023-05-13T03:25:17.464Z,194.03
2023-05-13T03:26:17.489Z,193.98
2023-05-13T03:27:17.535Z,194.51
2023-05-13T03:28:17.621Z,192.58
2023-05-13T03:29:17.671Z,194.73
2023-05-13T03:30:17.747Z,195.51
2023-05-13T03:31:17.792Z,195.41
2023-05-13T03:32:17.818Z,195.04
2023-05-13T03:33:17.873Z,196.43
2023-05-13T03:34:17.911Z,196.67
2023-05-13T03:35:17.950Z,198.27
2023-05-13T03:36:18.013Z,196.74
2023-05-13T03:37:18.069Z,197.44
2023-05-13T03:38:18.118Z,197.17
2023-05-13T03:39:18.185Z,196.09
2023-05-13T03:40:18.215Z,196.97
2023-05-13T03:41:18.278Z,196.78
2023-05-13T03:42:18.301Z,195.78
2023-05-13T03:43:18.348Z,196.15
2023-05-13T03:44:18.398Z,195.77
2023-05-13T03:45:18.464Z,194.98
2023-05-13T03:46:18.564Z,193.61
2023-05-13T03:47:18.585Z,194.63
2023-05-13T03:48:18.682Z,194.00
2023-05-13T03:49:18.713Z,195.38
2023-05-13T03:50:18.849Z,196.94
2023-05-13T03:51:18.804Z,192.98
2023-05-13T03:52:18.852Z,194.61
2023-05-13T03:53:18.929Z,193.02
2023-05-13T03:54:19.013Z,194.09
2023-05-13T03:55:19.072Z,193.47
2023-05-13T03:56:19.044Z,190.54
2023-05-13T03:57:19.085Z,192.51
2023-05-13T03:58:19.158Z,190.01
2023-05-13T03:59:19.161Z,187.52
2023-05-13T04:00:19.344Z,187.23
2023-05-13T04:01:19.237Z,187.60
2023-05-13T04:02:19.340Z,185.67
2023-05-13T04:03:19.366Z,186.90
2023-05-13T04:04:19.352Z,187.63
2023-05-13T04:05:19.490Z,185.91
2023-05-13T04:06:19.445Z,186.17
2023-05-13T04:07:19.496Z,187.09
2023-05-13T04:08:19.533Z,186.53
2023-05-13T04:09:19.571Z,184.26
2023-05-13T04:10:19.801Z,186.18
2023-05-13T04:11:19.691Z,186.23
2023-05-13T04:12:19.752Z,186.31
2023-05-13T04:13:19.812Z,187.89
2023-05-13T04:14:19.864Z,186.47
2023-05-13T04:15:19.913Z,188.64
2023-05-13T04:16:19.990Z,191.63
2023-05-13T04:17:20.040Z,192.30
2023-05-13T04:18:20.046Z,191.41
2023-05-13T04:19:20.092Z,190.21
2023-05-13T04:20:20.329Z,191.31
2023-05-13T04:21:20.159Z,193.60
2023-05-13T04:22:20.203Z,193.99
2023-05-13T04:23:20.253Z,195.63
2023-05-13T04:24:20.314Z,196.36
2023-05-13T04:25:20.347Z,197.32
2023-05-13T04:26:20.395Z,197.37
2023-05-13T04:27:20.446Z,199.92
2023-05-13T04:28:20.501Z,199.35
2023-05-13T04:29:20.538Z,200.13
2023-05-13T04:30:20.767Z,201.82
2023-05-13T04:31:20.672Z,199.00
2023-05-13T04:32:20.726Z,197.12
2023-05-13T04:33:20.765Z,198.55
2023-05-13T04:34:20.811Z,198.18
2023-05-13T04:35:20.984Z,196.58
2023-05-13T04:36:20.911Z,198.96
2023-05-13T04:37:20.928Z,197.32
2023-05-13T04:38:20.973Z,194.57
2023-05-13T04:39:21.043Z,196.85
2023-05-13T04:40:21.301Z,195.67
2023-05-13T04:41:21.107Z,194.73
2023-05-13T04:42:21.173Z,194.18
2023-05-13T04:43:21.226Z,193.23
2023-05-13T04:44:21.278Z,193.35
2023-05-13T04:45:21.308Z,194.69
2023-05-13T04:46:21.388Z,193.04
2023-05-13T04:47:21.451Z,192.92
2023-05-13T04:48:21.496Z,192.97
2023-05-13T04:49:21.557Z,191.41
2023-05-13T04:50:21.804Z,190.90
2023-05-13T04:51:21.646Z,192.37
2023-05-13T04:52:21.713Z,189.24
2023-05-13T04:53:21.772Z,189.20
2023-05-13T04:54:21.826Z,188.62
2023-05-13T04:55:22.742Z,187.02
2023-05-13T04:56:21.885Z,187.08
2023-05-13T04:57:21.952Z,189.07
2023-05-13T04:58:22.006Z,190.50
2023-05-13T04:59:22.073Z,187.03
2023-05-13T05:00:22.407Z,186.63
2023-05-13T05:01:22.232Z,186.61
2023-05-13T05:02:22.330Z,186.95
2023-05-13T05:03:22.349Z,187.47
2023-05-13T05:04:22.446Z,186.46
2023-05-13T05:05:22.429Z,187.83
2023-05-13T05:06:22.471Z,188.44
2023-05-13T05:07:22.529Z,185.05
2023-05-13T05:08:22.619Z,183.94
2023-05-13T05:09:22.620Z,182.24
2023-05-13T05:10:22.834Z,179.93
2023-05-13T05:11:22.754Z,181.41
2023-05-13T05:12:22.825Z,182.03
2023-05-13T05:13:22.888Z,183.50
2023-05-13T05:14:22.979Z,179.16
2023-05-13T05:15:23.036Z,180.03
2023-05-13T05:16:23.059Z,178.73
2023-05-13T05:17:23.230Z,178.98
2023-05-13T05:18:23.319Z,180.43
2023-05-13T05:19:23.344Z,182.02
2023-05-13T05:20:23.560Z,180.73
2023-05-13T05:21:23.376Z,181.26
2023-05-13T05:22:23.419Z,183.64
2023-05-13T05:23:23.473Z,182.36
2023-05-13T05:24:23.547Z,185.53
2023-05-13T05:25:23.601Z,186.75
2023-05-13T05:26:23.663Z,186.78
2023-05-13T05:27:23.708Z,185.16
2023-05-13T05:28:23.760Z,185.99
2023-05-13T05:29:23.824Z,185.57
2023-05-13T05:30:24.272Z,183.36
2023-05-13T05:31:23.948Z,185.91
2023-05-13T05:32:23.994Z,185.15
2023-05-13T05:33:24.069Z,186.32
2023-05-13T05:34:24.124Z,186.25
2023-05-13T05:35:24.134Z,182.71
2023-05-13T05:36:24.193Z,185.89
2023-05-13T05:37:24.253Z,185.96
2023-05-13T05:38:24.325Z,185.29
2023-05-13T05:39:24.379Z,184.51
2023-05-13T05:40:24.449Z,185.55
2023-05-13T05:41:24.502Z,184.34
2023-05-13T05:42:24.564Z,185.54
2023-05-13T05:43:24.630Z,187.22
2023-05-13T05:44:24.669Z,185.54
2023-05-13T05:45:24.752Z,185.85
2023-05-13T05:46:24.943Z,188.74
2023-05-13T05:47:24.899Z,188.08
2023-05-13T05:48:24.926Z,190.20
2023-05-13T05:49:24.983Z,190.97
2023-05-13T05:50:25.041Z,190.17
2023-05-13T05:51:25.121Z,188.87
2023-05-13T05:52:25.167Z,189.52
2023-05-13T05:53:25.229Z,187.54
2023-05-13T05:54:25.305Z,191.31
2023-05-13T05:55:25.343Z,192.68
2023-05-13T05:56:25.407Z,194.42
2023-05-13T05:57:25.447Z,193.96
2023-05-13T05:58:25.512Z,193.67
2023-05-13T05:59:25.547Z,193.54
2023-05-13T06:00:25.610Z,192.37
2023-05-13T06:01:25.644Z,190.37
2023-05-13T06:02:25.736Z,191.52
2023-05-13T06:03:25.925Z,191.64
2023-05-13T06:04:25.840Z,189.21
2023-05-13T06:05:25.876Z,189.43
2023-05-13T06:06:25.977Z,189.78
2023-05-13T06:07:25.989Z,191.35
2023-05-13T06:08:26.063Z,188.49
2023-05-13T06:09:26.108Z,189.41
2023-05-13T06:10:26.174Z,190.17
2023-05-13T06:11:26.245Z,190.04
2023-05-13T06:12:26.315Z,190.77
2023-05-13T06:13:26.453Z,191.26
2023-05-13T06:14:26.411Z,190.65
2023-05-13T06:15:26.461Z,190.42
2023-05-13T06:16:26.592Z,188.75
2023-05-13T06:17:26.576Z,189.64
2023-05-13T06:18:26.854Z,188.83
2023-05-13T06:19:26.643Z,189.58
2023-05-13T06:20:49.047Z,25.00
2023-05-13T06:21:49.155Z,25.00
2023-05-13T06:22:49.230Z,25.00
2023-05-13T06:23:49.337Z,25.00
2023-05-13T06:24:49.458Z,25.00
2023-05-13T06:25:49.571Z,26.76
2023-05-13T06:26:49.611Z,26.54
2023-05-13T06:27:49.809Z,27.03
2023-05-13T06:28:49.848Z,27.39
2023-05-13T06:29:49.971Z,25.34
2023-05-13T06:30:50.240Z,25.19
2023-05-13T06:31:50.265Z,25.13
2023-05-13T06:33:00.798Z,33.77
2023-05-13T06:33:51.422Z,33.83
2023-05-13T06:34:50.374Z,28.10
2023-05-13T06:35:50.373Z,26.51
2023-05-13T06:36:50.348Z,23.94
2023-05-13T06:37:50.359Z,22.89
2023-05-13T06:38:50.373Z,27.95
2023-05-13T06:39:50.332Z,27.51
2023-05-13T06:40:50.337Z,27.00
2023-05-13T06:41:50.330Z,25.00
2023-05-13T06:42:50.324Z,26.84
2023-05-13T06:43:50.321Z,24.91
2023-05-13T06:44:50.316Z,27.54
2023-05-13T06:45:50.337Z,25.00
2023-05-13T06:46:50.394Z,27.65
2023-05-13T06:47:50.445Z,30.36
2023-05-13T06:48:50.435Z,29.54
2023-05-13T06:49:50.474Z,31.85
2023-05-13T06:50:50.486Z,29.96
2023-05-13T06:51:50.532Z,26.45
2023-05-13T06:52:50.575Z,27.79
2023-05-13T06:53:50.582Z,31.90
2023-05-13T06:54:50.655Z,30.37
2023-05-13T06:55:50.695Z,26.37
2023-05-13T06:56:50.729Z,25.38
2023-05-13T06:57:50.757Z,26.78
2023-05-13T06:58:50.797Z,27.79
2023-05-13T06:59:50.852Z,30.22
2023-05-13T07:00:50.927Z,27.82
2023-05-13T07:01:50.959Z,27.13
2023-05-13T07:02:51.065Z,28.32
2023-05-13T07:03:51.089Z,25.23
2023-05-13T07:04:51.078Z,27.35
2023-05-13T07:05:51.104Z,28.85
2023-05-13T07:06:51.146Z,28.45
2023-05-13T07:07:51.179Z,30.02
2023-05-13T07:08:51.207Z,25.32
2023-05-13T07:09:51.250Z,27.65
2023-05-13T07:10:51.309Z,30.20
2023-05-13T07:11:51.337Z,34.54
2023-05-13T07:12:51.383Z,37.81
2023-05-13T07:13:51.401Z,34.53
2023-05-13T07:14:51.436Z,31.67
2023-05-13T07:15:51.472Z,27.31
2023-05-13T07:16:51.543Z,35.62
2023-05-13T07:17:51.685Z,37.43
2023-05-13T07:18:51.641Z,35.73
2023-05-13T07:19:51.622Z,39.62
2023-05-13T07:20:51.669Z,41.39
2023-05-13T07:21:51.684Z,43.68
2023-05-13T07:22:51.712Z,42.06
2023-05-13T07:23:51.763Z,45.21
2023-05-13T07:24:51.800Z,44.54
2023-05-13T07:25:51.804Z,46.68
2023-05-13T07:26:51.874Z,48.20
2023-05-13T07:27:51.880Z,51.31
2023-05-13T07:28:51.892Z,51.13
2023-05-13T07:29:51.947Z,52.52
2023-05-13T07:30:52.006Z,54.65
2023-05-13T07:31:52.013Z,50.55
2023-05-13T07:32:53.863Z,53.30
2023-05-13T07:33:52.089Z,53.05
2023-05-13T07:34:52.098Z,52.17
2023-05-13T07:35:52.147Z,51.17
2023-05-13T07:36:52.184Z,50.34
2023-05-13T07:37:52.231Z,52.27
2023-05-13T07:38:52.236Z,52.92
2023-05-13T07:39:52.290Z,52.86
2023-05-13T07:40:52.290Z,52.94
2023-05-13T07:41:52.343Z,51.06
2023-05-13T07:42:52.379Z,52.12
2023-05-13T07:43:52.394Z,55.61
2023-05-13T07:44:52.453Z,57.16
2023-05-13T07:45:52.479Z,55.10
2023-05-13T07:46:52.515Z,54.71
2023-05-13T07:47:52.594Z,55.44
2023-05-13T07:48:52.594Z,57.26
2023-05-13T07:49:52.605Z,57.37
2023-05-13T07:50:52.655Z,60.54
2023-05-13T07:51:52.672Z,59.76
2023-05-13T07:52:52.695Z,58.25
2023-05-13T07:53:52.705Z,60.02
2023-05-13T07:54:52.735Z,55.56
2023-05-13T07:55:52.748Z,59.07
2023-05-13T07:56:52.841Z,59.77
2023-05-13T07:57:52.829Z,62.02
2023-05-13T07:58:52.852Z,60.12
2023-05-13T07:59:52.890Z,61.08
2023-05-13T08:00:52.920Z,59.96
2023-05-13T08:01:52.938Z,56.64
2023-05-13T08:02:53.044Z,53.35
2023-05-13T08:03:53.153Z,56.03
2023-05-13T08:04:53.092Z,55.15
2023-05-13T08:05:53.060Z,55.99
2023-05-13T08:06:53.087Z,57.55
2023-05-13T08:07:53.092Z,56.74
2023-05-13T08:08:53.113Z,56.31
2023-05-13T08:09:53.124Z,58.74
2023-05-13T08:10:53.141Z,58.55
2023-05-13T08:11:53.197Z,54.91
2023-05-13T08:12:53.195Z,56.06
2023-05-13T08:13:53.284Z,59.18
2023-05-13T08:14:53.253Z,56.80
2023-05-13T08:15:53.247Z,61.29
2023-05-13T08:16:53.391Z,61.87
2023-05-13T08:17:53.333Z,62.78
2023-05-13T08:18:53.337Z,60.66
2023-05-13T08:19:53.371Z,58.90
2023-05-13T08:20:53.363Z,56.56
2023-05-13T08:21:53.401Z,56.20
2023-05-13T08:22:53.418Z,58.37
2023-05-13T08:23:53.420Z,55.69
2023-05-13T08:24:53.462Z,60.73
2023-05-13T08:25:53.483Z,57.91
2023-05-13T08:26:53.496Z,57.23
2023-05-13T08:27:53.534Z,55.49
2023-05-13T08:28:55.077Z,55.96
2023-05-13T08:29:53.602Z,51.36
2023-05-13T08:30:53.596Z,59.62
2023-05-13T08:31:53.758Z,61.85
2023-05-13T08:32:53.668Z,63.69
2023-05-13T08:33:53.673Z,62.99
2023-05-13T08:34:53.698Z,64.50
2023-05-13T08:35:53.685Z,71.60
2023-05-13T08:36:53.733Z,73.34
2023-05-13T08:37:53.737Z,68.06
2023-05-13T08:38:53.779Z,64.91
2023-05-13T08:39:53.789Z,64.12
2023-05-13T08:40:53.819Z,69.60
2023-05-13T08:41:53.834Z,62.42
2023-05-13T08:42:53.876Z,58.35
2023-05-13T08:43:53.899Z,58.43
2023-05-13T08:44:53.915Z,56.35
2023-05-13T08:45:53.958Z,58.47
2023-05-13T08:46:53.937Z,59.75
2023-05-13T08:47:54.024Z,59.69
2023-05-13T08:48:53.982Z,63.84
2023-05-13T08:49:54.024Z,63.47
2023-05-13T08:50:54.055Z,64.68
2023-05-13T08:51:54.129Z,74.15
2023-05-13T08:52:54.186Z,81.22
2023-05-13T08:53:54.166Z,85.28
2023-05-13T08:54:54.165Z,90.50
2023-05-13T08:55:54.184Z,85.00
2023-05-13T08:56:54.178Z,86.67
2023-05-13T08:57:54.188Z,89.43
2023-05-13T08:58:54.196Z,81.06
2023-05-13T08:59:54.256Z,75.79
2023-05-13T09:00:54.249Z,78.27
2023-05-13T09:01:54.260Z,84.27
2023-05-13T09:02:54.273Z,88.58
2023-05-13T09:03:54.244Z,90.21
2023-05-13T09:04:54.256Z,85.79
2023-05-13T09:05:54.236Z,86.19
2023-05-13T09:06:54.259Z,90.06
2023-05-13T09:07:54.264Z,89.47
2023-05-13T09:08:54.323Z,86.74
2023-05-13T09:09:54.510Z,82.33
2023-05-13T09:10:54.585Z,71.25
2023-05-13T09:11:54.729Z,70.81
2023-05-13T09:12:54.831Z,66.59
2023-05-13T09:13:54.937Z,64.57
2023-05-13T09:14:55.077Z,67.22
2023-05-13T09:15:55.241Z,66.07
2023-05-13T09:16:55.312Z,64.95
2023-05-13T09:17:55.504Z,61.89
2023-05-13T09:18:55.680Z,56.76
2023-05-13T09:19:55.666Z,55.72
2023-05-13T09:20:55.880Z,53.82
2023-05-13T09:21:55.921Z,57.38
2023-05-13T09:22:56.140Z,56.69
2023-05-13T09:23:56.264Z,57.24
2023-05-13T09:24:56.424Z,56.60
2023-05-13T09:25:56.562Z,62.67
2023-05-13T09:26:56.693Z,51.00
2023-05-13T09:27:56.805Z,43.59
2023-05-13T09:28:56.976Z,48.81
2023-05-13T09:29:57.111Z,40.74
2023-05-13T09:30:57.326Z,38.38
2023-05-13T09:31:57.353Z,35.35
2023-05-13T09:32:57.564Z,33.22
2023-05-13T09:33:57.626Z,36.41
2023-05-13T09:34:57.763Z,30.98
2023-05-13T09:35:57.868Z,30.97
2023-05-13T09:36:58.013Z,29.94
2023-05-13T09:37:58.054Z,31.83
2023-05-13T09:38:58.138Z,26.45
2023-05-13T09:39:58.265Z,25.00
2023-05-13T09:40:58.391Z,28.18
2023-05-13T09:41:58.493Z,37.04
2023-05-13T09:42:58.642Z,35.28
2023-05-13T09:43:58.741Z,32.79
2023-05-13T09:44:58.867Z,26.77
2023-05-13T09:45:59.076Z,30.60
2023-05-13T09:46:59.146Z,31.33
2023-05-13T09:47:59.209Z,38.09
2023-05-13T09:48:59.358Z,38.36
2023-05-13T09:49:59.417Z,30.56
2023-05-13T09:50:59.402Z,37.97
2023-05-13T09:51:59.363Z,33.97
2023-05-13T09:52:59.372Z,38.62
2023-05-13T09:53:59.359Z,31.59
2023-05-13T09:54:59.393Z,31.52
2023-05-13T09:55:59.354Z,38.99
2023-05-13T09:56:59.380Z,39.12
2023-05-13T09:57:59.393Z,33.89
2023-05-13T09:58:59.405Z,29.61
2023-05-13T09:59:59.395Z,25.92
2023-05-13T10:00:59.413Z,27.75
2023-05-13T10:01:59.392Z,27.95
2023-05-13T10:02:59.467Z,27.18
2023-05-13T10:03:59.476Z,25.00
2023-05-13T10:04:59.430Z,27.42
2023-05-13T10:06:01.310Z,25.65
2023-05-13T10:06:59.449Z,26.08
2023-05-13T10:07:59.438Z,29.79
2023-05-13T10:08:59.426Z,26.52
2023-05-13T10:09:59.424Z,33.55
2023-05-13T10:10:59.398Z,32.60
2023-05-13T10:11:59.388Z,24.80
2023-05-13T10:12:59.403Z,34.40
2023-05-13T10:13:59.389Z,42.41
2023-05-13T10:14:59.392Z,42.46
2023-05-13T10:15:59.385Z,40.41
2023-05-13T10:16:59.459Z,43.34
2023-05-13T10:17:59.393Z,43.26
2023-05-13T10:18:59.387Z,40.79
2023-05-13T10:19:59.406Z,43.72
2023-05-13T10:20:59.374Z,48.02
2023-05-13T10:21:59.362Z,46.73
2023-05-13T10:22:59.416Z,44.37
2023-05-13T10:23:59.364Z,46.99
2023-05-13T10:24:59.325Z,48.79
2023-05-13T10:25:59.346Z,50.82
2023-05-13T10:26:59.336Z,51.17
2023-05-13T10:27:59.334Z,50.33
2023-05-13T10:28:59.350Z,47.71
2023-05-13T10:30:01.134Z,52.60
2023-05-13T10:30:59.308Z,52.68
2023-05-13T10:31:59.303Z,49.91
2023-05-13T10:32:59.314Z,48.65
2023-05-13T10:33:59.270Z,51.85
2023-05-13T10:34:59.286Z,56.08
2023-05-13T10:35:59.359Z,57.17
2023-05-13T10:36:59.243Z,49.91
2023-05-13T10:37:59.221Z,51.85
2023-05-13T10:38:59.242Z,52.18
2023-05-13T10:39:59.236Z,50.61
2023-05-13T10:40:59.208Z,52.06
2023-05-13T10:41:59.207Z,51.79
2023-05-13T10:42:59.214Z,50.06
2023-05-13T10:43:59.194Z,49.12
2023-05-13T10:44:59.202Z,47.49
2023-05-13T10:45:59.358Z,49.13
2023-05-13T10:46:59.180Z,45.13
2023-05-13T10:47:59.256Z,49.05
2023-05-13T10:48:59.198Z,49.92
2023-05-13T10:49:59.162Z,46.79
2023-05-13T10:50:59.147Z,48.90
2023-05-13T10:51:59.157Z,46.68
2023-05-13T10:52:59.150Z,51.10
2023-05-13T10:53:59.207Z,52.13
2023-05-13T10:54:59.158Z,48.73
2023-05-13T10:55:59.135Z,53.71
2023-05-13T10:56:59.224Z,54.50
2023-05-13T10:58:00.168Z,51.71
2023-05-13T10:58:59.086Z,51.86
2023-05-13T10:59:59.076Z,51.26
2023-05-13T11:00:59.088Z,52.53
2023-05-13T11:01:59.159Z,43.47
2023-05-13T11:02:59.245Z,44.41
2023-05-13T11:03:59.344Z,43.46
2023-05-13T11:04:59.221Z,37.85
2023-05-13T11:05:59.292Z,32.25
2023-05-13T11:06:59.283Z,34.97
2023-05-13T11:07:59.360Z,35.30
2023-05-13T11:08:59.416Z,28.30
2023-05-13T11:09:59.430Z,28.11
2023-05-13T11:10:59.490Z,26.97
2023-05-13T11:11:59.525Z,29.84
2023-05-13T11:12:59.572Z,32.74
2023-05-13T11:13:59.632Z,32.82
2023-05-13T11:14:59.665Z,31.12
2023-05-13T11:15:59.775Z,25.22
2023-05-13T11:16:59.787Z,28.28
2023-05-13T11:17:59.849Z,31.66
2023-05-13T11:18:59.889Z,32.46
2023-05-13T11:19:59.923Z,29.30
2023-05-13T11:20:59.970Z,26.86
2023-05-13T11:22:00.008Z,26.28
2023-05-13T11:23:00.035Z,25.50
2023-05-13T11:24:00.101Z,27.10
2023-05-13T11:25:00.168Z,33.83
2023-05-13T11:26:00.169Z,30.10
2023-05-13T11:27:00.229Z,25.00
2023-05-13T11:28:00.247Z,28.75
2023-05-13T11:29:00.285Z,34.95
2023-05-13T11:30:00.329Z,33.79
2023-05-13T11:31:00.381Z,35.53
2023-05-13T11:32:00.957Z,37.41
2023-05-13T11:33:00.500Z,29.23
2023-05-13T11:34:00.523Z,35.01
2023-05-13T11:35:00.579Z,31.10
2023-05-13T11:36:00.596Z,27.21
2023-05-13T11:37:00.651Z,31.82
2023-05-13T11:38:00.725Z,35.55
2023-05-13T11:39:00.694Z,29.26
2023-05-13T11:40:00.743Z,28.51
2023-05-13T11:41:00.785Z,29.63
2023-05-13T11:42:00.820Z,32.47
2023-05-13T11:43:00.840Z,28.50
2023-05-13T11:44:00.882Z,25.28
2023-05-13T11:45:00.903Z,26.85
2023-05-13T11:46:01.016Z,26.40
2023-05-13T11:47:00.964Z,30.69
2023-05-13T11:48:01.038Z,39.85
2023-05-13T11:49:01.020Z,37.51
2023-05-13T11:50:01.040Z,35.03
2023-05-13T11:51:01.102Z,38.53
2023-05-13T11:52:01.125Z,42.04
2023-05-13T11:53:01.148Z,47.22
2023-05-13T11:54:01.185Z,51.41
2023-05-13T11:55:01.215Z,52.58
2023-05-13T11:56:01.247Z,49.16
2023-05-13T11:57:01.250Z,40.70
2023-05-13T11:58:01.304Z,38.87
2023-05-13T11:59:01.303Z,46.26
2023-05-13T12:00:01.377Z,49.25
2023-05-13T12:01:01.401Z,51.63
2023-05-13T12:02:01.456Z,44.86
2023-05-13T12:03:01.538Z,46.70
2023-05-13T12:04:01.474Z,49.40
2023-05-13T12:05:01.686Z,52.35
2023-05-13T12:06:01.567Z,50.54
2023-05-13T12:07:01.579Z,45.69
2023-05-13T12:08:01.628Z,41.90
2023-05-13T12:09:01.743Z,37.43
2023-05-13T12:10:01.697Z,25.00
2023-05-13T12:11:01.723Z,27.11
2023-05-13T12:12:01.751Z,31.13
2023-05-13T12:13:01.771Z,36.53
2023-05-13T12:14:01.795Z,33.68
2023-05-13T12:15:01.800Z,33.54
2023-05-13T12:16:01.899Z,26.07
2023-05-13T12:17:01.906Z,25.33
2023-05-13T12:18:01.925Z,31.24
2023-05-13T12:19:02.049Z,30.58
2023-05-13T12:20:02.027Z,25.00
2023-05-13T12:21:02.042Z,25.02
2023-05-13T12:22:02.983Z,26.88
2023-05-13T12:23:02.314Z,30.48
2023-05-13T12:24:02.340Z,28.69
2023-05-13T12:25:02.365Z,25.97
2023-05-13T12:26:02.377Z,25.00
2023-05-13T12:27:02.387Z,30.92
2023-05-13T12:28:02.400Z,25.01
2023-05-13T12:29:02.415Z,29.21
2023-05-13T12:30:02.493Z,41.97
2023-05-13T12:31:02.512Z,32.18
2023-05-13T12:32:02.486Z,30.08
2023-05-13T12:33:02.549Z,27.35
2023-05-13T12:34:02.529Z,29.79
2023-05-13T12:35:02.541Z,27.86
2023-05-13T12:36:02.557Z,30.03
2023-05-13T12:37:02.629Z,31.83
2023-05-13T12:38:02.583Z,29.01
2023-05-13T12:39:02.621Z,33.41
2023-05-13T12:40:02.635Z,27.42
2023-05-13T12:41:02.659Z,25.85